Time;durP1;ratioP1;P1;durP2;ratioP2;P2;SDS_P1;SDS_P2;PMS_P1;PMS_P2;Temp;Humidity;BMP_temperature;BMP_pressure;BME280_temperature;BME280_humidity;BME280_pressure;Samples;Min_cycle;Max_cycle;Signal;HPM_P1;HPM_P2
2021/06/12 00:02:19;;;;;;;5.53;4.38;;;;;;;;;;5102724;27;20411;-36
2021/06/12 00:04:44;;;;;;;4.95;4.25;;;;;;;;;;5097621;27;20737;-36
2021/06/12 00:07:10;;;;;;;4.30;2.90;;;;;;;;;;5101899;27;20058;-36
2021/06/12 00:09:35;;;;;;;4.93;4.40;;;;;;;;;;5098970;28;20032;-36
2021/06/12 00:12:01;;;;;;;4.72;3.70;;;;;;;;;;5097181;28;20050;-36
2021/06/12 00:14:26;;;;;;;4.20;3.80;;;;;;;;;;5097995;27;20027;-36
2021/06/12 00:16:51;;;;;;;8.10;3.63;;;;;;;;;;5097340;28;20022;-36
2021/06/12 00:19:16;;;;;;;4.78;3.63;;;;;;;;;;5101236;28;20030;-36
2021/06/12 00:21:42;;;;;;;4.28;3.42;;;;;;;;;;5099427;28;20039;-36
2021/06/12 00:24:08;;;;;;;3.97;3.58;;;;;;;;;;5093347;28;20114;-36
2021/06/12 00:26:33;;;;;;;7.97;3.83;;;;;;;;;;5105011;28;20478;-36
2021/06/12 00:28:59;;;;;;;6.97;4.25;;;;;;;;;;5102320;28;20672;-36
2021/06/12 00:31:24;;;;;;;2.33;2.13;;;;;;;;;;5100844;28;20078;-36
2021/06/12 00:33:50;;;;;;;4.03;3.55;;;;;;;;;;5100509;28;20031;-36
2021/06/12 00:36:15;;;;;;;4.72;4.07;;;;;;;;;;5094947;28;20027;-36
2021/06/12 00:38:40;;;;;;;5.28;4.13;;;;;;;;;;5096667;28;20016;-36
2021/06/12 00:41:06;;;;;;;6.25;3.97;;;;;;;;;;5095549;28;20103;-36
2021/06/12 00:43:32;;;;;;;5.25;4.40;;;;;;;;;;5101237;28;20019;-36
2021/06/12 00:45:57;;;;;;;4.68;3.65;;;;;;;;;;5097691;28;20094;-36
2021/06/12 00:48:22;;;;;;;4.43;3.47;;;;;;;;;;5095970;28;20028;-36
2021/06/12 00:50:48;;;;;;;5.00;3.85;;;;;;;;;;5099036;28;20475;-36
2021/06/12 00:53:18;;;;;;;4.65;3.80;;;;;;;;;;5097269;28;20016;-36
2021/06/12 00:55:44;;;;;;;4.80;4.32;;;;;;;;;;5100713;28;20039;-36
2021/06/12 00:58:09;;;;;;;5.28;3.58;;;;;;;;;;5096576;28;20028;-36
2021/06/12 01:00:35;;;;;;;9.30;4.35;;;;;;;;;;5097611;28;20020;-36
2021/06/12 01:03:00;;;;;;;3.55;3.15;;;;;;;;;;5095398;28;20110;-37
2021/06/12 01:05:26;;;;;;;5.03;3.72;;;;;;;;;;5102265;28;20044;-36
2021/06/12 01:07:51;;;;;;;4.15;3.60;;;;;;;;;;5099823;28;20069;-35
2021/06/12 01:10:17;;;;;;;3.45;2.80;;;;;;;;;;5098743;28;20062;-35
2021/06/12 01:12:52;;;;;;;4.72;4.25;;;;;;;;;;5102812;28;20106;-36
2021/06/12 01:15:18;;;;;;;12.45;4.78;;;;;;;;;;5102804;27;20069;-35
2021/06/12 01:17:47;;;;;;;5.80;4.47;;;;;;;;;;5100354;27;20031;-35
2021/06/12 01:20:35;;;;;;;11.38;6.43;;;;;;;;;;5100301;27;20029;-38
2021/06/12 01:23:03;;;;;;;4.63;4.03;;;;;;;;;;5078849;28;20502;-35
2021/06/12 01:25:37;;;;;;;7.07;4.93;;;;;;;;;;5096790;27;20161;-35
2021/06/12 01:28:21;;;;;;;6.15;5.55;;;;;;;;;;5095798;27;20024;-35
2021/06/12 01:30:48;;;;;;;4.22;3.83;;;;;;;;;;5104499;27;20102;-35
2021/06/12 01:33:14;;;;;;;5.32;4.22;;;;;;;;;;5100408;27;20077;-35
2021/06/12 01:35:50;;;;;;;5.70;4.35;;;;;;;;;;5107607;27;20027;-35
2021/06/12 01:38:23;;;;;;;6.28;4.13;;;;;;;;;;5103431;27;20015;-35
2021/06/12 01:40:49;;;;;;;7.45;5.10;;;;;;;;;;5102040;27;20017;-35
2021/06/12 01:43:15;;;;;;;4.93;4.47;;;;;;;;;;5101482;27;20027;-35
2021/06/12 01:45:41;;;;;;;4.82;4.30;;;;;;;;;;5098957;27;20049;-36
2021/06/12 01:48:08;;;;;;;10.45;4.60;;;;;;;;;;5105454;27;20034;-35
2021/06/12 01:50:34;;;;;;;4.82;4.30;;;;;;;;;;5099692;27;20065;-35
2021/06/12 01:53:00;;;;;;;6.28;4.95;;;;;;;;;;5103179;27;20075;-35
2021/06/12 01:55:28;;;;;;;4.68;4.22;;;;;;;;;;5102012;27;20016;-35
2021/06/12 01:57:54;;;;;;;8.20;4.15;;;;;;;;;;5099885;27;20024;-36
2021/06/12 02:00:19;;;;;;;5.38;4.88;;;;;;;;;;5106205;27;20015;-36
2021/06/12 02:02:46;;;;;;;5.88;4.50;;;;;;;;;;5101989;27;20574;-35
2021/06/12 02:05:12;;;;;;;4.50;4.10;;;;;;;;;;5099153;27;20044;-35
2021/06/12 02:07:38;;;;;;;4.82;4.43;;;;;;;;;;5099566;27;20413;-35
2021/06/12 02:10:04;;;;;;;11.00;4.20;;;;;;;;;;5102310;27;20241;-35
2021/06/12 02:12:29;;;;;;;5.18;4.10;;;;;;;;;;5100100;27;20081;-35
2021/06/12 02:14:58;;;;;;;5.03;4.22;;;;;;;;;;5102513;27;20081;-36
2021/06/12 02:17:26;;;;;;;7.78;4.20;;;;;;;;;;5105564;27;20027;-35
2021/06/12 02:19:51;;;;;;;7.10;4.32;;;;;;;;;;5098755;27;20020;-35
2021/06/12 02:22:17;;;;;;;5.20;4.53;;;;;;;;;;5105540;27;20378;-35
2021/06/12 02:24:43;;;;;;;5.60;4.80;;;;;;;;;;5110057;27;20535;-35
2021/06/12 02:27:09;;;;;;;7.88;6.22;;;;;;;;;;5110069;27;20050;-36
2021/06/12 02:29:35;;;;;;;9.98;5.70;;;;;;;;;;5104613;27;20102;-35
2021/06/12 02:32:11;;;;;;;5.05;4.65;;;;;;;;;;5101138;27;20087;-35
2021/06/12 02:34:39;;;;;;;7.47;4.32;;;;;;;;;;5100301;27;20023;-35
2021/06/12 02:37:05;;;;;;;12.48;5.07;;;;;;;;;;5102623;27;20563;-35
2021/06/12 02:39:30;;;;;;;4.40;4.00;;;;;;;;;;5101467;27;20072;-35
2021/06/12 02:41:56;;;;;;;5.13;4.70;;;;;;;;;;5096254;27;20016;-36
2021/06/12 02:44:21;;;;;;;6.97;5.88;;;;;;;;;;5102548;27;20081;-36
2021/06/12 02:46:46;;;;;;;9.27;4.72;;;;;;;;;;5101081;27;20019;-35
2021/06/12 02:49:13;;;;;;;8.35;5.80;;;;;;;;;;5101710;27;20023;-35
2021/06/12 02:51:41;;;;;;;6.10;5.05;;;;;;;;;;5105107;27;20343;-35
2021/06/12 02:54:07;;;;;;;5.55;5.05;;;;;;;;;;5100711;27;20088;-35
2021/06/12 02:56:32;;;;;;;10.80;6.10;;;;;;;;;;5098523;27;20024;-35
2021/06/12 02:59:01;;;;;;;11.82;5.20;;;;;;;;;;5102349;27;20016;-35
2021/06/12 03:01:27;;;;;;;7.50;6.75;;;;;;;;;;5103520;27;20023;-35
2021/06/12 03:03:53;;;;;;;5.22;4.72;;;;;;;;;;5106603;27;20114;-35
2021/06/12 03:06:19;;;;;;;5.43;4.88;;;;;;;;;;5096558;27;20134;-35
2021/06/12 03:08:46;;;;;;;7.43;4.88;;;;;;;;;;5096540;27;20024;-35
2021/06/12 03:11:12;;;;;;;10.30;4.65;;;;;;;;;;5103627;27;20077;-35
2021/06/12 03:13:39;;;;;;;6.53;5.47;;;;;;;;;;5109785;27;20019;-35
2021/06/12 03:16:05;;;;;;;5.93;5.32;;;;;;;;;;5098329;27;20046;-35
2021/06/12 03:18:30;;;;;;;8.52;6.60;;;;;;;;;;5100887;27;20402;-35
2021/06/12 03:20:57;;;;;;;8.05;5.60;;;;;;;;;;5097636;27;20028;-35
2021/06/12 03:23:23;;;;;;;6.93;5.43;;;;;;;;;;5105956;27;20016;-35
2021/06/12 03:25:50;;;;;;;6.38;5.75;;;;;;;;;;5107257;27;20088;-35
2021/06/12 03:28:15;;;;;;;6.40;5.63;;;;;;;;;;5102914;27;20027;-35
2021/06/12 03:30:41;;;;;;;5.82;4.68;;;;;;;;;;5096316;27;20128;-35
2021/06/12 03:33:08;;;;;;;7.22;4.88;;;;;;;;;;5096983;27;20031;-35
2021/06/12 03:35:34;;;;;;;5.43;4.93;;;;;;;;;;5096198;27;20194;-35
2021/06/12 03:38:00;;;;;;;6.13;5.40;;;;;;;;;;5100525;27;20497;-35
2021/06/12 03:40:25;;;;;;;6.28;5.68;;;;;;;;;;5102288;27;20474;-35
2021/06/12 03:42:52;;;;;;;7.25;5.68;;;;;;;;;;5101701;27;20030;-35
2021/06/12 03:45:17;;;;;;;6.25;4.93;;;;;;;;;;5101792;27;20033;-35
2021/06/12 03:47:43;;;;;;;9.02;8.13;;;;;;;;;;5105559;27;20513;-35
2021/06/12 03:50:10;;;;;;;6.53;5.20;;;;;;;;;;5105343;27;20020;-36
2021/06/12 03:52:35;;;;;;;9.88;5.85;;;;;;;;;;5100994;27;20028;-35
2021/06/12 03:55:02;;;;;;;5.65;5.07;;;;;;;;;;5097919;27;20035;-35
2021/06/12 03:57:27;;;;;;;8.52;6.13;;;;;;;;;;5094993;27;20051;-36
2021/06/12 03:59:53;;;;;;;6.30;5.80;;;;;;;;;;5097495;27;20510;-36
2021/06/12 04:02:18;;;;;;;8.13;5.68;;;;;;;;;;5093078;27;20510;-35
2021/06/12 04:04:45;;;;;;;5.38;4.88;;;;;;;;;;5101516;27;20032;-35
2021/06/12 04:07:11;;;;;;;7.53;5.50;;;;;;;;;;5095010;28;20035;-35
2021/06/12 04:09:36;;;;;;;5.75;5.25;;;;;;;;;;5099612;28;20023;-35
2021/06/12 04:12:02;;;;;;;6.35;5.43;;;;;;;;;;5108628;27;20023;-35
2021/06/12 04:14:27;;;;;;;6.50;5.88;;;;;;;;;;5109502;27;20470;-36
2021/06/12 04:16:52;;;;;;;13.35;6.00;;;;;;;;;;5106429;27;20103;-36
2021/06/12 04:19:18;;;;;;;6.40;5.80;;;;;;;;;;5099146;27;20026;-36
2021/06/12 04:21:43;;;;;;;5.35;4.95;;;;;;;;;;5100818;28;20395;-36
2021/06/12 04:24:08;;;;;;;6.75;5.30;;;;;;;;;;5096140;28;20031;-36
2021/06/12 04:26:34;;;;;;;6.93;6.22;;;;;;;;;;5098241;28;20028;-36
2021/06/12 04:28:59;;;;;;;10.07;9.18;;;;;;;;;;5098259;28;20020;-36
2021/06/12 04:31:24;;;;;;;7.50;5.03;;;;;;;;;;5093134;28;20734;-36
2021/06/12 04:33:50;;;;;;;5.88;5.13;;;;;;;;;;5104935;28;20019;-36
2021/06/12 04:36:15;;;;;;;6.18;5.57;;;;;;;;;;5106556;27;20023;-36
2021/06/12 04:38:41;;;;;;;7.85;6.13;;;;;;;;;;5100000;28;20499;-36
2021/06/12 04:41:06;;;;;;;6.03;5.53;;;;;;;;;;5103798;28;20024;-36
2021/06/12 04:43:31;;;;;;;6.40;5.32;;;;;;;;;;5100108;28;20027;-36
2021/06/12 04:45:57;;;;;;;6.45;5.30;;;;;;;;;;5104310;28;20530;-36
2021/06/12 04:48:22;;;;;;;7.68;6.97;;;;;;;;;;5095179;28;20573;-36
2021/06/12 04:50:47;;;;;;;9.65;6.32;;;;;;;;;;5102736;27;20024;-36
2021/06/12 04:53:13;;;;;;;7.32;5.93;;;;;;;;;;5102946;27;20024;-36
2021/06/12 04:55:38;;;;;;;8.35;6.53;;;;;;;;;;5101803;27;20020;-36
2021/06/12 04:58:03;;;;;;;6.75;6.05;;;;;;;;;;5104296;27;20084;-36
2021/06/12 05:00:29;;;;;;;10.15;6.88;;;;;;;;;;5108851;27;20028;-36
2021/06/12 05:02:54;;;;;;;12.13;5.63;;;;;;;;;;5116096;27;20493;-36
2021/06/12 05:05:19;;;;;;;8.00;5.72;;;;;;;;;;5101558;27;20086;-36
2021/06/12 05:07:45;;;;;;;6.82;6.20;;;;;;;;;;5102817;27;20031;-36
2021/06/12 05:10:10;;;;;;;13.95;7.82;;;;;;;;;;5101664;27;20029;-36
2021/06/12 05:12:36;;;;;;;7.57;6.18;;;;;;;;;;5103945;27;20073;-36
2021/06/12 05:15:02;;;;;;;5.10;4.47;;;;;;;;;;5105223;27;20032;-36
2021/06/12 05:17:28;;;;;;;6.72;6.15;;;;;;;;;;5095129;27;20495;-36
2021/06/12 05:19:54;;;;;;;5.72;5.22;;;;;;;;;;5100220;27;20135;-36
2021/06/12 05:22:25;;;;;;;10.48;7.18;;;;;;;;;;5104760;27;20102;-36
2021/06/12 05:24:54;;;;;;;21.38;6.38;;;;;;;;;;5109315;27;20024;-36
2021/06/12 05:27:20;;;;;;;6.28;5.32;;;;;;;;;;5105493;27;20031;-36
2021/06/12 05:29:46;;;;;;;7.15;6.50;;;;;;;;;;5101599;27;20493;-36
2021/06/12 05:32:11;;;;;;;6.43;5.82;;;;;;;;;;5102295;27;20024;-36
2021/06/12 05:34:37;;;;;;;9.73;7.45;;;;;;;;;;5107717;27;20585;-43
2021/06/12 05:37:03;;;;;;;12.07;8.07;;;;;;;;;;5100919;27;20021;-42
2021/06/12 05:39:29;;;;;;;6.85;6.20;;;;;;;;;;5101626;27;20367;-42
2021/06/12 05:41:54;;;;;;;10.50;7.78;;;;;;;;;;5099255;27;20043;-43
2021/06/12 05:44:19;;;;;;;7.88;6.97;;;;;;;;;;5101103;27;20493;-43
2021/06/12 05:46:45;;;;;;;13.52;7.85;;;;;;;;;;5102667;27;20096;-43
2021/06/12 05:49:10;;;;;;;7.85;7.13;;;;;;;;;;5101960;27;20042;-43
2021/06/12 05:51:35;;;;;;;7.10;6.40;;;;;;;;;;5101608;27;20116;-42
2021/06/12 05:54:01;;;;;;;9.02;8.10;;;;;;;;;;5100365;27;20706;-42
2021/06/12 05:56:26;;;;;;;8.32;6.72;;;;;;;;;;5104388;27;20465;-43
2021/06/12 05:58:51;;;;;;;7.47;6.75;;;;;;;;;;5099790;27;20512;-44
2021/06/12 06:01:17;;;;;;;9.80;8.27;;;;;;;;;;5104601;27;20007;-42
2021/06/12 06:03:42;;;;;;;10.90;8.13;;;;;;;;;;5099217;28;20645;-43
2021/06/12 06:06:07;;;;;;;9.73;8.30;;;;;;;;;;5100005;27;20147;-45
2021/06/12 06:08:33;;;;;;;7.68;6.75;;;;;;;;;;5100790;27;20490;-44
2021/06/12 06:10:59;;;;;;;15.43;7.45;;;;;;;;;;5104249;27;20034;-44
2021/06/12 06:13:24;;;;;;;7.82;7.03;;;;;;;;;;5102402;27;20028;-42
2021/06/12 06:15:49;;;;;;;7.00;6.40;;;;;;;;;;5101834;27;20015;-43
2021/06/12 06:18:15;;;;;;;13.80;6.90;;;;;;;;;;5100762;27;20511;-42
2021/06/12 06:20:41;;;;;;;8.98;7.15;;;;;;;;;;5101757;27;20024;-43
2021/06/12 06:23:06;;;;;;;6.95;6.25;;;;;;;;;;5100913;27;20036;-42
2021/06/12 06:25:32;;;;;;;17.77;5.50;;;;;;;;;;5104806;27;20057;-43
2021/06/12 06:27:57;;;;;;;14.20;13.20;;;;;;;;;;5097566;27;20020;-42
2021/06/12 06:30:22;;;;;;;7.53;6.80;;;;;;;;;;5097263;27;20033;-43
2021/06/12 06:32:48;;;;;;;7.10;5.65;;;;;;;;;;5107146;27;20098;-42
2021/06/12 06:35:14;;;;;;;7.75;6.00;;;;;;;;;;5105757;27;20504;-42
2021/06/12 06:37:40;;;;;;;8.02;7.22;;;;;;;;;;5100963;27;20578;-44
2021/06/12 06:40:06;;;;;;;7.07;5.60;;;;;;;;;;5099454;27;20102;-43
2021/06/12 06:42:31;;;;;;;7.35;6.63;;;;;;;;;;5099915;27;20029;-42
2021/06/12 06:44:56;;;;;;;14.48;5.75;;;;;;;;;;5099536;27;20020;-44
2021/06/12 06:47:22;;;;;;;26.10;7.75;;;;;;;;;;5100716;27;20016;-45
2021/06/12 06:49:47;;;;;;;6.55;5.97;;;;;;;;;;5103240;27;20023;-43
2021/06/12 06:52:12;;;;;;;4.35;3.95;;;;;;;;;;5102081;27;20030;-44
2021/06/12 06:54:38;;;;;;;6.28;5.78;;;;;;;;;;5096422;28;20020;-44
2021/06/12 06:57:03;;;;;;;6.63;6.00;;;;;;;;;;5098331;27;20144;-45
2021/06/12 06:59:30;;;;;;;6.05;5.35;;;;;;;;;;5101691;27;20034;-42
2021/06/12 07:01:55;;;;;;;6.95;5.50;;;;;;;;;;5100428;27;20023;-42
2021/06/12 07:04:20;;;;;;;4.97;4.57;;;;;;;;;;5097785;27;20107;-43
2021/06/12 07:06:46;;;;;;;6.70;6.00;;;;;;;;;;5100398;27;20415;-42
2021/06/12 07:09:11;;;;;;;6.82;6.10;;;;;;;;;;5102033;27;20461;-42
2021/06/12 07:11:36;;;;;;;7.18;6.15;;;;;;;;;;5104439;27;20109;-44
2021/06/12 07:14:02;;;;;;;6.38;5.80;;;;;;;;;;5103591;27;20024;-42
2021/06/12 07:16:27;;;;;;;6.60;5.65;;;;;;;;;;5100002;27;20012;-45
2021/06/12 07:18:54;;;;;;;9.93;7.13;;;;;;;;;;5098659;27;20020;-43
2021/06/12 07:21:19;;;;;;;7.75;5.18;;;;;;;;;;5104301;27;20050;-42
2021/06/12 07:23:45;;;;;;;7.25;6.57;;;;;;;;;;5099003;27;20479;-48
2021/06/12 07:26:10;;;;;;;8.00;6.70;;;;;;;;;;5101833;27;20097;-47
2021/06/12 07:28:36;;;;;;;7.20;6.50;;;;;;;;;;5098667;27;20737;-46
2021/06/12 07:31:02;;;;;;;11.38;6.18;;;;;;;;;;5099442;28;20466;-47
2021/06/12 07:33:27;;;;;;;8.65;6.72;;;;;;;;;;5105346;27;20023;-49
2021/06/12 07:35:53;;;;;;;6.53;5.93;;;;;;;;;;5098655;27;20054;-48
2021/06/12 07:38:18;;;;;;;6.43;5.82;;;;;;;;;;5097585;27;20107;-43
2021/06/12 07:40:44;;;;;;;10.95;5.50;;;;;;;;;;5094865;27;20107;-43
2021/06/12 07:43:09;;;;;;;11.40;5.43;;;;;;;;;;5102009;27;20165;-49
2021/06/12 07:45:35;;;;;;;10.25;5.57;;;;;;;;;;5097852;28;20035;-43
2021/06/12 07:48:00;;;;;;;13.93;12.65;;;;;;;;;;5096014;27;20042;-43
2021/06/12 07:50:26;;;;;;;5.78;4.97;;;;;;;;;;5104947;27;20367;-46
2021/06/12 07:52:51;;;;;;;9.00;7.60;;;;;;;;;;5099305;27;20034;-42
2021/06/12 07:55:17;;;;;;;15.80;8.52;;;;;;;;;;5103594;27;20020;-46
2021/06/12 07:57:42;;;;;;;7.57;6.47;;;;;;;;;;5103797;27;20031;-43
2021/06/12 08:00:08;;;;;;;13.05;7.95;;;;;;;;;;5103086;27;20801;-45
2021/06/12 08:02:34;;;;;;;10.27;8.40;;;;;;;;;;5098102;27;20023;-43
2021/06/12 08:05:00;;;;;;;7.43;6.68;;;;;;;;;;5094497;27;20407;-44
2021/06/12 08:07:25;;;;;;;15.50;9.25;;;;;;;;;;5100754;28;20054;-41
2021/06/12 08:09:50;;;;;;;6.65;5.93;;;;;;;;;;5093988;28;20534;-44
2021/06/12 08:12:16;;;;;;;12.65;6.35;;;;;;;;;;5100728;27;20841;-45
2021/06/12 08:14:41;;;;;;;5.25;4.85;;;;;;;;;;5101910;28;20069;-45
2021/06/12 08:17:07;;;;;;;11.30;6.18;;;;;;;;;;5099177;27;20012;-43
2021/06/12 08:19:34;;;;;;;12.27;4.18;;;;;;;;;;5104646;27;20023;-45
2021/06/12 08:22:00;;;;;;;8.32;6.47;;;;;;;;;;5106791;28;20023;-46
2021/06/12 08:24:25;;;;;;;7.15;5.88;;;;;;;;;;5099916;28;20494;-45
2021/06/12 08:26:50;;;;;;;3.85;3.42;;;;;;;;;;5097612;28;20047;-43
2021/06/12 08:29:16;;;;;;;8.05;7.25;;;;;;;;;;5100141;28;20111;-44
2021/06/12 08:31:41;;;;;;;5.72;3.88;;;;;;;;;;5100279;27;20055;-43
2021/06/12 08:34:06;;;;;;;5.63;5.10;;;;;;;;;;5094225;28;20486;-42
2021/06/12 08:36:32;;;;;;;8.65;6.63;;;;;;;;;;5100009;28;20824;-47
2021/06/12 08:38:57;;;;;;;6.13;5.53;;;;;;;;;;5096223;28;20173;-45
2021/06/12 08:41:23;;;;;;;5.07;4.28;;;;;;;;;;5102420;28;20427;-43
2021/06/12 08:43:48;;;;;;;10.60;6.75;;;;;;;;;;5096507;28;20054;-42
2021/06/12 08:46:14;;;;;;;11.15;5.07;;;;;;;;;;5096103;27;20054;-43
2021/06/12 08:48:40;;;;;;;10.88;5.03;;;;;;;;;;5097989;27;20738;-44
2021/06/12 08:51:05;;;;;;;8.90;4.97;;;;;;;;;;5096992;28;20137;-45
2021/06/12 08:53:32;;;;;;;4.20;3.85;;;;;;;;;;5096417;28;20048;-42
2021/06/12 08:55:58;;;;;;;7.60;6.35;;;;;;;;;;5096336;28;20505;-43
2021/06/12 08:58:23;;;;;;;7.25;5.85;;;;;;;;;;5099326;28;20027;-45
2021/06/12 09:00:49;;;;;;;8.20;5.28;;;;;;;;;;5094245;28;20017;-42
2021/06/12 09:03:20;;;;;;;5.70;5.10;;;;;;;;;;5095531;28;20100;-42
2021/06/12 09:05:47;;;;;;;;;;;;;;;;;;5102173;28;20040;-41
2021/06/12 09:08:12;;;;;;;5.30;4.63;;;;;;;;;;5103815;28;19907;-44
2021/06/12 09:10:52;;;;;;;7.15;6.28;;;;;;;;;;5104620;28;20042;-43
2021/06/12 09:13:17;;;;;;;8.65;7.82;;;;;;;;;;5105142;28;20077;-43
2021/06/12 09:15:50;;;;;;;6.72;6.13;;;;;;;;;;5098220;28;20047;-43
2021/06/12 09:18:32;;;;;;;4.13;3.72;;;;;;;;;;5103142;28;20047;-43
2021/06/12 09:20:58;;;;;;;6.20;5.47;;;;;;;;;;5095727;28;20319;-42
2021/06/12 09:23:23;;;;;;;6.70;5.68;;;;;;;;;;5095332;28;20494;-45
2021/06/12 09:25:49;;;;;;;13.93;6.30;;;;;;;;;;5093217;27;20063;-46
2021/06/12 09:28:14;;;;;;;6.88;5.00;;;;;;;;;;5092622;28;20369;-44
2021/06/12 09:30:40;;;;;;;7.82;4.78;;;;;;;;;;5098648;28;20026;-44
2021/06/12 09:33:06;;;;;;;8.65;6.13;;;;;;;;;;5097577;28;20039;-43
2021/06/12 09:35:33;;;;;;;6.55;5.65;;;;;;;;;;5098124;28;20035;-41
2021/06/12 09:37:59;;;;;;;7.72;5.72;;;;;;;;;;5100011;27;20019;-44
2021/06/12 09:40:28;;;;;;;8.60;7.78;;;;;;;;;;5098625;27;20535;-42
2021/06/12 09:42:55;;;;;;;4.60;3.92;;;;;;;;;;5103669;27;20032;-43
2021/06/12 09:45:20;;;;;;;6.05;5.35;;;;;;;;;;5102873;27;20062;-42
2021/06/12 09:47:46;;;;;;;6.20;5.70;;;;;;;;;;5102286;27;20788;-43
2021/06/12 09:50:12;;;;;;;7.40;6.28;;;;;;;;;;5097975;27;20123;-42
2021/06/12 09:52:45;;;;;;;10.38;6.80;;;;;;;;;;5098400;27;20113;-38
2021/06/12 09:55:21;;;;;;;5.80;5.07;;;;;;;;;;5096764;27;20020;-38
2021/06/12 09:57:47;;;;;;;9.32;5.05;;;;;;;;;;5101424;27;20020;-38
2021/06/12 10:00:14;;;;;;;6.00;4.15;;;;;;;;;;5100024;27;20027;-39
2021/06/12 10:02:45;;;;;;;4.72;4.32;;;;;;;;;;5099802;27;20120;-38
2021/06/12 10:05:12;;;;;;;11.68;8.02;;;;;;;;;;5101704;27;20121;-39
2021/06/12 10:07:38;;;;;;;4.82;3.65;;;;;;;;;;5104358;27;20031;-39
2021/06/12 10:10:07;;;;;;;5.80;4.05;;;;;;;;;;5100515;27;20617;-39
2021/06/12 10:12:33;;;;;;;4.95;4.40;;;;;;;;;;5102748;27;20036;-39
2021/06/12 10:14:59;;;;;;;8.27;3.92;;;;;;;;;;5095792;27;20016;-38
2021/06/12 10:17:27;;;;;;;4.68;3.95;;;;;;;;;;5101486;27;20023;-38
2021/06/12 10:19:52;;;;;;;4.10;3.40;;;;;;;;;;5098155;27;20015;-43
2021/06/12 10:22:18;;;;;;;3.38;3.00;;;;;;;;;;5104170;27;20055;-39
2021/06/12 10:24:43;;;;;;;5.35;4.72;;;;;;;;;;5100927;27;20019;-39
2021/06/12 10:27:09;;;;;;;14.85;4.93;;;;;;;;;;5102316;27;20038;-38
2021/06/12 10:29:35;;;;;;;3.75;3.13;;;;;;;;;;5104593;27;20688;-38
2021/06/12 10:32:01;;;;;;;4.57;3.92;;;;;;;;;;5100759;27;20030;-38
2021/06/12 10:34:28;;;;;;;2.58;2.30;;;;;;;;;;5099570;27;20026;-38
2021/06/12 10:37:00;;;;;;;5.88;4.35;;;;;;;;;;5100655;27;20024;-39
2021/06/12 10:39:30;;;;;;;5.20;3.65;;;;;;;;;;5096204;27;20024;-39
2021/06/12 10:42:10;;;;;;;6.80;3.63;;;;;;;;;;5099700;27;20031;-38
2021/06/12 10:44:35;;;;;;;;;;;;;;;;;;5101466;27;20081;-39
2021/06/12 10:47:01;;;;;;;4.17;3.87;;;;;;;;;;5097723;27;19930;-44
2021/06/12 10:49:31;;;;;;;4.28;3.60;;;;;;;;;;5093289;27;20099;-38
2021/06/12 10:51:56;;;;;;;;;;;;;;;;;;5103819;27;20118;-43
2021/06/12 10:54:24;;;;;;;5.55;4.20;;;;;;;;;;5104098;27;20615;-41
2021/06/12 10:56:56;;;;;;;26.65;24.58;;;;;;;;;;5101112;27;20032;-41
2021/06/12 10:59:36;;;;;;;6.57;5.75;;;;;;;;;;5106727;27;20106;-39
2021/06/12 11:02:09;;;;;;;7.05;5.55;;;;;;;;;;5107069;27;20494;-42
2021/06/12 11:04:43;;;;;;;7.13;4.45;;;;;;;;;;5098541;27;20066;-38
2021/06/12 11:07:26;;;;;;;3.08;2.78;;;;;;;;;;5098916;27;20047;-39
2021/06/12 11:09:52;;;;;;;2.90;2.50;;;;;;;;;;5095004;27;20028;-39
2021/06/12 11:12:17;;;;;;;3.53;2.15;;;;;;;;;;5102802;27;20078;-39
2021/06/12 11:15:03;;;;;;;13.57;6.15;;;;;;;;;;5102921;27;20023;-41
2021/06/12 11:17:29;;;;;;;8.73;3.83;;;;;;;;;;5097242;28;20076;-36
2021/06/12 11:19:54;;;;;;;3.10;2.70;;;;;;;;;;5098662;27;20016;-40
2021/06/12 11:22:32;;;;;;;6.87;2.20;;;;;;;;;;5101032;27;20030;-38
2021/06/12 11:25:13;;;;;;;4.60;3.63;;;;;;;;;;5099434;27;20301;-38
2021/06/12 11:27:39;;;;;;;2.63;2.40;;;;;;;;;;5097816;27;20054;-38
2021/06/12 11:30:13;;;;;;;4.70;3.63;;;;;;;;;;5099808;27;20019;-37
2021/06/12 11:32:39;;;;;;;4.30;3.90;;;;;;;;;;5097577;27;20128;-37
2021/06/12 11:35:05;;;;;;;3.28;2.60;;;;;;;;;;5098368;27;20038;-37
2021/06/12 11:37:30;;;;;;;2.15;1.42;;;;;;;;;;5100201;27;20016;-37
2021/06/12 11:39:57;;;;;;;3.97;3.67;;;;;;;;;;5100701;27;20031;-38
2021/06/12 11:42:40;;;;;;;8.82;4.13;;;;;;;;;;5101503;27;20357;-37
2021/06/12 11:45:12;;;;;;;7.95;3.25;;;;;;;;;;5102812;27;20442;-37
2021/06/12 11:47:37;;;;;;;8.48;3.50;;;;;;;;;;5098313;27;20144;-41
2021/06/12 11:50:03;;;;;;;13.85;4.50;;;;;;;;;;5097884;27;20027;-36
2021/06/12 11:52:38;;;;;;;3.38;3.03;;;;;;;;;;5102828;27;20633;-36
2021/06/12 11:55:18;;;;;;;3.53;2.80;;;;;;;;;;5096585;27;20328;-36
2021/06/12 11:57:44;;;;;;;3.17;2.88;;;;;;;;;;5098994;27;20710;-38
2021/06/12 12:00:29;;;;;;;3.22;2.72;;;;;;;;;;5101928;27;20062;-37
2021/06/12 12:03:08;;;;;;;4.63;3.13;;;;;;;;;;5099540;27;20023;-37
2021/06/12 12:05:40;;;;;;;3.67;2.92;;;;;;;;;;5097226;27;20075;-37
2021/06/12 12:08:21;;;;;;;5.20;3.40;;;;;;;;;;5100685;27;20111;-37
2021/06/12 12:10:53;;;;;;;5.68;3.80;;;;;;;;;;5095342;27;20041;-37
2021/06/12 12:13:36;;;;;;;4.40;3.22;;;;;;;;;;5106757;27;20059;-36
2021/06/12 12:16:05;;;;;;;2.83;2.10;;;;;;;;;;5094807;28;20028;-37
2021/06/12 12:18:43;;;;;;;4.10;3.33;;;;;;;;;;5096515;28;20428;-36
2021/06/12 12:21:08;;;;;;;4.28;3.72;;;;;;;;;;5092875;28;20019;-38
2021/06/12 12:23:34;;;;;;;6.97;2.88;;;;;;;;;;5093333;28;20083;-39
2021/06/12 12:26:14;;;;;;;6.78;5.47;;;;;;;;;;5093852;28;20555;-37
2021/06/12 12:28:51;;;;;;;5.30;4.10;;;;;;;;;;5096340;28;20032;-37
2021/06/12 12:31:17;;;;;;;3.53;3.22;;;;;;;;;;5101177;28;20154;-37
2021/06/12 12:33:46;;;;;;;5.13;3.40;;;;;;;;;;5098065;28;20490;-37
2021/06/12 12:36:12;;;;;;;1.80;1.43;;;;;;;;;;5097156;28;20031;-36
2021/06/12 12:38:39;;;;;;;7.07;3.33;;;;;;;;;;5094965;28;20024;-46
2021/06/12 12:41:05;;;;;;;11.18;3.80;;;;;;;;;;5098659;28;20058;-45
2021/06/12 12:43:32;;;;;;;4.85;2.90;;;;;;;;;;5102535;28;20142;-45
2021/06/12 12:45:58;;;;;;;3.50;3.10;;;;;;;;;;5098405;28;20474;-45
2021/06/12 12:48:23;;;;;;;6.53;3.17;;;;;;;;;;5103169;28;20092;-46
2021/06/12 12:50:49;;;;;;;5.35;3.40;;;;;;;;;;5103824;28;20115;-45
2021/06/12 12:53:18;;;;;;;10.05;3.22;;;;;;;;;;5101194;28;20034;-45
2021/06/12 12:55:53;;;;;;;5.03;4.13;;;;;;;;;;5094238;28;20031;-46
2021/06/12 12:58:22;;;;;;;9.85;4.18;;;;;;;;;;5096463;28;20027;-45
2021/06/12 13:00:47;;;;;;;5.22;3.30;;;;;;;;;;5096385;28;20137;-45
2021/06/12 13:03:13;;;;;;;4.45;3.83;;;;;;;;;;5098012;28;20729;-45
2021/06/12 13:05:39;;;;;;;3.53;3.20;;;;;;;;;;5098890;28;20055;-46
2021/06/12 13:08:06;;;;;;;4.47;3.08;;;;;;;;;;5099689;28;20020;-46
2021/06/12 13:10:42;;;;;;;24.05;6.50;;;;;;;;;;5100197;28;20012;-36
2021/06/12 13:13:09;;;;;;;10.05;8.82;;;;;;;;;;5104714;27;20063;-36
2021/06/12 13:15:35;;;;;;;4.88;3.00;;;;;;;;;;5103004;27;20103;-36
2021/06/12 13:18:11;;;;;;;5.45;3.80;;;;;;;;;;5106171;27;20091;-36
2021/06/12 13:20:38;;;;;;;7.97;4.32;;;;;;;;;;5109469;27;20031;-36
2021/06/12 13:23:03;;;;;;;4.78;2.53;;;;;;;;;;5104879;27;20101;-36
2021/06/12 13:25:29;;;;;;;4.53;3.30;;;;;;;;;;5105018;27;20522;-36
2021/06/12 13:27:57;;;;;;;3.40;2.42;;;;;;;;;;5105999;27;20027;-36
2021/06/12 13:30:24;;;;;;;3.97;3.15;;;;;;;;;;5100280;27;20054;-36
2021/06/12 13:32:49;;;;;;;4.40;3.67;;;;;;;;;;5101834;27;20034;-36
2021/06/12 13:35:41;;;;;;;3.00;2.70;;;;;;;;;;5094524;27;20016;-36
2021/06/12 13:38:20;;;;;;;5.97;2.67;;;;;;;;;;5097812;27;20505;-36
2021/06/12 13:40:48;;;;;;;5.55;3.38;;;;;;;;;;5106598;27;20027;-36
2021/06/12 13:43:21;;;;;;;6.38;3.58;;;;;;;;;;5105809;27;20096;-36
2021/06/12 13:45:47;;;;;;;4.88;3.45;;;;;;;;;;5105232;27;20140;-35
2021/06/12 13:48:13;;;;;;;3.35;2.65;;;;;;;;;;5106867;27;20031;-36
2021/06/12 13:50:38;;;;;;;2.20;1.90;;;;;;;;;;5110659;27;20020;-36
2021/06/12 13:53:03;;;;;;;3.88;2.55;;;;;;;;;;5108246;27;20030;-35
2021/06/12 13:55:29;;;;;;;7.00;3.10;;;;;;;;;;5106850;27;20382;-35
2021/06/12 13:57:54;;;;;;;3.00;2.70;;;;;;;;;;5105739;27;20042;-35
2021/06/12 14:00:20;;;;;;;4.70;2.70;;;;;;;;;;5101199;27;20657;-36
2021/06/12 14:02:45;;;;;;;2.58;2.25;;;;;;;;;;5102149;27;20026;-36
2021/06/12 14:05:11;;;;;;;16.33;2.50;;;;;;;;;;5103587;27;20078;-37
2021/06/12 14:07:40;;;;;;;5.25;3.22;;;;;;;;;;5106299;27;20024;-36
2021/06/12 14:10:07;;;;;;;7.83;3.50;;;;;;;;;;5099758;27;20077;-36
2021/06/12 14:12:32;;;;;;;6.90;2.85;;;;;;;;;;5102102;27;20371;-36
2021/06/12 14:14:58;;;;;;;7.30;4.07;;;;;;;;;;5104550;27;20108;-36
2021/06/12 14:17:23;;;;;;;8.98;3.45;;;;;;;;;;5106928;27;20016;-36
2021/06/12 14:19:48;;;;;;;4.10;3.13;;;;;;;;;;5105825;27;20488;-36
2021/06/12 14:22:13;;;;;;;3.10;2.50;;;;;;;;;;5100512;27;20019;-36
2021/06/12 14:24:39;;;;;;;3.85;2.95;;;;;;;;;;5102774;27;20043;-36
2021/06/12 14:27:04;;;;;;;3.58;2.72;;;;;;;;;;5102194;27;20035;-35
2021/06/12 14:29:32;;;;;;;6.78;3.83;;;;;;;;;;5105862;27;20110;-36
2021/06/12 14:31:58;;;;;;;2.88;2.33;;;;;;;;;;5100129;27;20032;-36
2021/06/12 14:34:24;;;;;;;3.50;2.67;;;;;;;;;;5102011;27;20157;-36
2021/06/12 14:36:50;;;;;;;7.63;4.15;;;;;;;;;;5104620;27;20023;-36
2021/06/12 14:39:15;;;;;;;8.07;3.60;;;;;;;;;;5111786;27;20713;-36
2021/06/12 14:41:41;;;;;;;10.95;2.92;;;;;;;;;;5110662;27;20027;-36